Time;durP1;ratioP1;P1;durP2;ratioP2;P2;SDS_P1;SDS_P2;PMS_P1;PMS_P2;Temp;Humidity;BMP_temperature;BMP_pressure;BME280_temperature;BME280_humidity;BME280_pressure;Samples;Min_cycle;Max_cycle;Signal;HPM_P1;HPM_P2
2024/02/29 00:02:25;;;;;;;7.40;4.70;;;;;;;7.15;59.77;99397.86;102675;1292;600214;-25
2024/02/29 00:12:31;;;;;;;8.60;4.30;;;;;;;6.43;62.21;99391.11;102681;1291;600559;-28
2024/02/29 00:14:59;;;;;;;8.40;5.00;;;;;;;6.17;63.17;99391.42;104827;1267;61241;-27
2024/02/29 00:17:27;;;;;;;7.40;4.00;;;;;;;6.33;63.31;99392.59;104799;1271;61117;-27
2024/02/29 00:19:55;;;;;;;8.30;3.50;;;;;;;6.95;61.44;99395.98;104849;1266;70368;-27
2024/02/29 00:22:22;;;;;;;11.20;4.20;;;;;;;7.01;61.10;99394.96;104839;1269;73160;-28
2024/02/29 00:24:50;;;;;;;12.90;5.80;;;;;;;7.02;60.94;99396.30;104807;1266;71465;-27
2024/02/29 00:34:59;;;;;;;5.90;3.30;;;;;;;6.38;63.15;99399.86;102744;1290;599034;-25
2024/02/29 00:37:28;;;;;;;6.30;3.70;;;;;;;6.23;63.64;99397.09;105036;1266;61176;-25
2024/02/29 00:39:58;;;;;;;9.10;2.80;;;;;;;6.10;63.84;99401.10;104874;1269;61172;-25
2024/02/29 00:42:26;;;;;;;11.90;4.00;;;;;;;6.59;63.28;99401.61;105042;1267;71032;-25
2024/02/29 00:44:54;;;;;;;11.00;4.80;;;;;;;7.02;61.80;99402.32;104874;1266;74328;-25
2024/02/29 00:47:22;;;;;;;9.60;5.30;;;;;;;7.11;61.01;99403.12;105050;1266;71432;-28
2024/02/29 00:49:50;;;;;;;5.80;3.00;;;;;;;6.95;61.27;99403.77;105104;1263;188941;-28
2024/02/29 00:52:17;;;;;;;5.80;2.50;;;;;;;6.60;62.47;99398.57;105249;1263;61169;-28
2024/02/29 00:54:45;;;;;;;4.20;3.30;;;;;;;6.39;63.31;99401.39;105224;1263;70946;-28
2024/02/29 00:57:13;;;;;;;6.50;3.60;;;;;;;6.21;64.12;99399.83;105129;1269;73253;-28
2024/02/29 01:07:22;;;;;;;6.90;3.70;;;;;;;6.97;62.38;99398.27;103467;1286;599885;-25
2024/02/29 01:09:50;;;;;;;10.40;5.20;;;;;;;6.81;62.53;99399.75;104901;1269;61145;-25
2024/02/29 01:12:18;;;;;;;13.40;4.20;;;;;;;6.56;63.25;99396.42;104897;1265;61115;-25
2024/02/29 01:14:46;;;;;;;6.90;3.50;;;;;;;6.42;63.72;99396.70;104914;1269;70948;-26
2024/02/29 01:17:13;;;;;;;13.60;4.90;;;;;;;6.15;64.36;99397.38;104817;1272;72959;-25
2024/02/29 01:19:41;;;;;;;10.70;4.70;;;;;;;5.78;66.32;99390.12;104861;1266;72688;-26
2024/02/29 01:29:50;;;;;;;14.40;5.60;;;;;;;6.88;63.27;99392.97;102746;1290;599444;-25
2024/02/29 01:32:18;;;;;;;6.20;3.90;;;;;;;6.70;63.40;99393.18;104838;1270;61190;-27
2024/02/29 01:42:29;;;;;;;6.30;2.70;;;;;;;6.06;66.59;99389.65;102753;1292;599388;-25
2024/02/29 01:44:57;;;;;;;5.20;2.70;;;;;;;6.52;65.44;99390.24;105108;1265;61017;-25
2024/02/29 01:47:26;;;;;;;7.00;3.20;;;;;;;6.66;64.86;99388.74;104793;1264;61177;-25
2024/02/29 01:49:57;;;;;;;8.00;4.60;;;;;;;6.64;64.42;99384.05;105060;1266;70935;-25
2024/02/29 01:52:26;;;;;;;11.50;3.80;;;;;;;6.45;64.90;99382.55;104827;1271;72245;-25
2024/02/29 02:02:33;;;;;;;8.20;4.60;;;;;;;5.79;66.06;99377.67;102726;1292;599447;-25
2024/02/29 02:05:01;;;;;;;10.10;3.90;;;;;;;5.97;66.36;99377.20;104795;1267;61168;-25
2024/02/29 02:07:29;;;;;;;12.70;4.10;;;;;;;6.59;64.83;99378.29;104778;1271;61411;-25
2024/02/29 02:09:57;;;;;;;9.80;4.60;;;;;;;6.71;63.95;99380.02;104836;1270;71056;-25
2024/02/29 02:20:06;;;;;;;9.10;3.50;;;;;;;5.95;65.62;99381.65;102663;1292;599357;-25
2024/02/29 02:30:11;;;;;;;10.40;5.00;;;;;;;6.48;65.60;99385.88;102696;1292;600588;-25
2024/02/29 02:32:40;;;;;;;15.80;5.10;;;;;;;6.49;64.96;99389.40;104882;1272;61254;-25
2024/02/29 02:35:09;;;;;;;11.80;4.90;;;;;;;6.29;65.37;99388.15;104887;1267;61081;-25
2024/02/29 02:37:37;;;;;;;7.80;4.60;;;;;;;6.14;65.41;99390.59;104858;1272;70970;-25
2024/02/29 02:40:05;;;;;;;10.60;4.40;;;;;;;5.87;66.24;99385.85;104847;1273;74510;-26
2024/02/29 02:42:33;;;;;;;14.60;5.20;;;;;;;5.65;67.11;99386.04;105292;1260;70263;-27
2024/02/29 02:45:02;;;;;;;26.80;5.70;;;;;;;5.48;68.29;99394.20;105048;1263;189176;-27
2024/02/29 02:47:30;;;;;;;11.00;4.90;;;;;;;6.05;67.57;99398.65;105407;1260;61159;-25
2024/02/29 02:49:58;;;;;;;10.40;5.10;;;;;;;6.46;65.89;99396.48;105265;1262;72237;-27
2024/02/29 03:00:10;;;;;;;6.90;4.10;;;;;;;5.81;68.29;99396.20;102686;1294;599012;-28
2024/02/29 03:09:01;;;;;;;5.70;2.80;;;;;;;6.62;66.22;99396.96;102635;1292;600178;-29
2024/02/29 03:11:29;;;;;;;12.80;3.20;;;;;;;6.51;66.11;99398.64;104778;1269;61375;-26
2024/02/29 03:20:38;;;;;;;8.70;3.90;;;;;;;5.86;67.79;99391.25;102482;1292;615083;-27
2024/02/29 03:23:06;;;;;;;7.20;3.40;;;;;;;5.71;68.82;99389.98;104875;1270;61818;-27
2024/02/29 03:25:33;;;;;;;20.30;5.40;;;;;;;6.27;67.68;99390.17;104874;1266;61245;-27
2024/02/29 03:28:00;;;;;;;11.00;3.70;;;;;;;6.62;66.16;99397.62;105002;1266;72206;-27
2024/02/29 03:30:28;;;;;;;11.40;4.50;;;;;;;6.60;65.99;99403.59;104879;1266;73400;-27
2024/02/29 03:32:55;;;;;;;15.30;4.70;;;;;;;6.36;66.38;99401.70;104661;1268;159591;-28
2024/02/29 03:35:22;;;;;;;9.30;5.50;;;;;;;6.16;66.77;99402.66;104965;1263;61024;-27
2024/02/29 03:37:49;;;;;;;16.10;4.00;;;;;;;5.99;67.02;99402.59;105101;1263;61057;-27
2024/02/29 03:40:17;;;;;;;13.50;6.10;;;;;;;5.76;67.53;99401.27;105085;1262;72072;-28
2024/02/29 03:42:44;;;;;;;7.30;3.10;;;;;;;5.58;69.03;99405.52;105183;1262;74239;-27
2024/02/29 03:45:11;;;;;;;11.80;5.20;;;;;;;6.23;67.51;99408.83;105111;1263;73208;-27
2024/02/29 03:47:38;;;;;;;14.00;4.70;;;;;;;6.48;66.58;99411.34;105016;1263;61108;-27
2024/02/29 03:50:06;;;;;;;10.60;5.10;;;;;;;6.35;66.55;99406.42;105821;1253;61131;-27
2024/02/29 03:52:33;;;;;;;12.20;5.60;;;;;;;6.05;67.66;99406.07;105662;1253;72861;-27
2024/02/29 03:55:00;;;;;;;7.40;3.70;;;;;;;5.74;69.02;99405.69;105891;1253;74278;-28
2024/02/29 03:57:27;;;;;;;10.80;3.60;;;;;;;5.67;69.11;99407.99;105947;1253;71277;-27
2024/02/29 03:59:54;;;;;;;7.90;4.10;;;;;;;5.57;69.58;99415.92;105885;1253;61035;-27
2024/02/29 04:02:22;;;;;;;14.30;6.30;;;;;;;6.29;68.08;99417.77;105941;1253;61174;-27
2024/02/29 04:04:50;;;;;;;6.10;3.10;;;;;;;6.74;66.35;99424.36;105725;1253;72076;-27
2024/02/29 04:07:17;;;;;;;15.30;5.30;;;;;;;6.62;66.45;99422.14;105718;1257;74365;-28
2024/02/29 04:09:44;;;;;;;13.60;4.50;;;;;;;6.49;66.52;99420.09;105641;1254;72630;-27
2024/02/29 04:12:11;;;;;;;17.00;6.00;;;;;;;6.18;67.54;99421.90;105663;1253;61203;-27
2024/02/29 04:14:38;;;;;;;11.40;5.60;;;;;;;5.99;68.10;99423.98;105635;1258;61195;-27
2024/02/29 04:17:05;;;;;;;10.80;4.30;;;;;;;5.85;68.30;99430.09;105579;1253;73467;-27
2024/02/29 04:19:32;;;;;;;8.00;3.60;;;;;;;5.69;69.45;99431.96;105682;1253;74340;-27
2024/02/29 04:21:59;;;;;;;10.20;4.70;;;;;;;6.30;68.22;99430.02;105667;1253;72531;-27
2024/02/29 04:24:27;;;;;;;9.30;4.60;;;;;;;6.64;66.95;99430.98;105674;1253;61401;-27
2024/02/29 04:26:54;;;;;;;9.20;4.10;;;;;;;6.51;66.85;99434.47;105688;1254;61101;-27
2024/02/29 04:29:21;;;;;;;11.50;4.90;;;;;;;6.16;68.06;99436.81;105766;1253;72998;-27
2024/02/29 04:31:48;;;;;;;9.40;4.60;;;;;;;5.86;69.44;99433.80;105684;1253;74368;-27
2024/02/29 04:34:15;;;;;;;7.70;4.00;;;;;;;5.65;70.30;99435.48;105546;1253;72670;-27
2024/02/29 04:36:42;;;;;;;8.00;2.90;;;;;;;5.88;70.10;99437.85;105565;1253;61169;-27
2024/02/29 04:39:09;;;;;;;6.30;3.10;;;;;;;6.22;69.00;99436.65;105545;1254;61160;-27
2024/02/29 04:41:36;;;;;;;11.50;4.30;;;;;;;6.30;68.70;99437.94;105545;1253;73060;-27
2024/02/29 04:44:03;;;;;;;9.60;4.90;;;;;;;6.18;68.78;99435.51;105634;1253;74346;-27
2024/02/29 04:46:31;;;;;;;8.50;3.70;;;;;;;5.93;69.88;99432.75;105732;1253;71713;-27
2024/02/29 04:48:58;;;;;;;12.30;5.60;;;;;;;5.75;70.71;99429.59;105676;1253;61159;-27
2024/02/29 04:51:24;;;;;;;5.50;2.70;;;;;;;5.87;70.80;99436.37;105640;1257;61107;-27
2024/02/29 04:53:52;;;;;;;10.30;3.60;;;;;;;6.38;69.10;99437.11;105671;1253;73023;-27
2024/02/29 04:56:19;;;;;;;6.40;3.50;;;;;;;6.46;68.44;99437.67;105731;1253;74107;-27
2024/02/29 04:58:47;;;;;;;10.60;4.40;;;;;;;6.40;68.52;99445.98;105700;1253;72423;-27
2024/02/29 05:01:16;;;;;;;13.40;6.10;;;;;;;6.26;68.60;99447.62;105675;1253;61117;-27
2024/02/29 05:03:44;;;;;;;11.90;5.30;;;;;;;6.10;68.73;99446.12;105407;1253;61012;-28
2024/02/29 05:06:15;;;;;;;12.30;5.60;;;;;;;5.99;68.93;99449.67;105712;1253;73119;-27
2024/02/29 05:08:43;;;;;;;10.70;4.40;;;;;;;6.02;69.57;99456.55;105636;1254;74171;-27
2024/02/29 05:11:11;;;;;;;5.90;3.20;;;;;;;6.67;67.97;99455.78;105416;1253;72941;-27
2024/02/29 05:13:38;;;;;;;4.40;2.20;;;;;;;6.90;66.92;99454.13;105704;1253;61033;-27
2024/02/29 05:16:05;;;;;;;5.60;3.40;;;;;;;6.80;66.90;99457.65;105636;1253;61257;-27
2024/02/29 05:18:33;;;;;;;8.90;4.60;;;;;;;6.50;67.88;99460.80;105755;1253;73008;-27
2024/02/29 05:21:00;;;;;;;10.80;4.60;;;;;;;6.24;68.77;99458.29;105529;1253;74319;-28
2024/02/29 05:23:27;;;;;;;11.40;5.10;;;;;;;6.05;69.56;99464.65;105519;1253;72300;-27
2024/02/29 05:25:54;;;;;;;13.00;5.40;;;;;;;6.07;70.32;99464.76;105496;1253;61053;-27
2024/02/29 05:28:21;;;;;;;13.50;4.70;;;;;;;6.65;68.61;99467.84;105498;1258;61081;-27
2024/02/29 05:30:48;;;;;;;9.30;4.60;;;;;;;6.86;67.72;99469.86;105513;1253;73068;-27
2024/02/29 05:33:15;;;;;;;12.10;5.60;;;;;;;6.80;67.66;99469.73;105630;1253;74437;-27
2024/02/29 05:35:42;;;;;;;10.20;5.20;;;;;;;6.56;68.25;99469.18;105645;1258;72322;-27
2024/02/29 05:38:09;;;;;;;4.90;3.20;;;;;;;6.45;68.57;99466.58;105590;1253;61050;-27
2024/02/29 05:40:36;;;;;;;12.30;4.70;;;;;;;6.31;69.38;99469.11;105500;1258;61187;-27
2024/02/29 05:43:04;;;;;;;8.40;4.40;;;;;;;6.59;69.14;99467.98;105521;1254;72947;-27
2024/02/29 05:45:31;;;;;;;9.20;5.30;;;;;;;6.93;68.07;99471.53;105600;1256;72954;-27
2024/02/29 05:47:58;;;;;;;11.00;5.40;;;;;;;7.07;67.33;99475.40;105595;1253;72489;-27
2024/02/29 05:50:26;;;;;;;9.10;4.80;;;;;;;6.98;67.64;99476.45;105564;1253;61128;-27
2024/02/29 05:52:58;;;;;;;10.60;6.10;;;;;;;6.72;68.48;99475.20;105532;1253;61129;-27
2024/02/29 05:55:25;;;;;;;7.70;4.50;;;;;;;6.52;69.50;99476.16;105766;1253;73039;-27
2024/02/29 05:57:52;;;;;;;10.40;4.90;;;;;;;6.92;68.69;99484.02;105717;1258;74310;-27
2024/02/29 06:00:21;;;;;;;11.60;5.50;;;;;;;7.23;67.37;99486.15;105654;1253;72498;-28
2024/02/29 06:02:48;;;;;;;12.40;6.70;;;;;;;7.19;67.34;99490.89;105373;1259;61143;-27
2024/02/29 06:05:21;;;;;;;12.00;6.00;;;;;;;6.94;68.04;99493.05;105504;1259;61136;-27
2024/02/29 06:07:49;;;;;;;11.30;5.30;;;;;;;6.81;68.75;99501.91;105575;1253;72943;-27
2024/02/29 06:10:16;;;;;;;13.10;6.20;;;;;;;6.67;69.05;99501.52;105744;1253;73398;-27
2024/02/29 06:12:45;;;;;;;9.30;3.90;;;;;;;6.84;69.04;99498.45;105678;1253;72634;-25
2024/02/29 06:15:12;;;;;;;15.50;5.60;;;;;;;7.50;67.02;99496.13;105658;1253;61118;-25
2024/02/29 06:17:39;;;;;;;8.70;4.80;;;;;;;7.68;66.28;99498.63;105623;1258;61098;-25
2024/02/29 06:20:11;;;;;;;9.10;5.00;;;;;;;7.51;66.35;99494.83;105622;1253;73071;-27
2024/02/29 06:22:39;;;;;;;13.00;6.60;;;;;;;7.35;66.95;99494.45;105278;1261;73201;-27
2024/02/29 06:25:10;;;;;;;17.90;8.70;;;;;;;7.26;67.25;99495.63;105624;1253;72718;-28
2024/02/29 06:27:38;;;;;;;11.40;4.20;;;;;;;7.10;68.22;99501.26;105475;1253;61171;-27
2024/02/29 06:30:08;;;;;;;8.10;3.90;;;;;;;7.55;67.30;99503.95;105643;1258;61069;-25
2024/02/29 06:32:35;;;;;;;6.60;4.60;;;;;;;7.62;66.76;99508.16;105528;1254;71589;-25
2024/02/29 06:35:03;;;;;;;9.70;5.50;;;;;;;7.43;67.25;99506.38;105756;1253;75323;-26
2024/02/29 06:37:31;;;;;;;15.80;8.10;;;;;;;7.42;67.74;99509.20;105771;1253;72605;-26
2024/02/29 06:39:58;;;;;;;12.70;7.60;;;;;;;7.35;67.78;99507.06;105737;1253;61970;-25
2024/02/29 06:42:26;;;;;;;11.10;4.00;;;;;;;7.17;68.32;99506.90;105801;1258;61100;-26
2024/02/29 06:44:54;;;;;;;6.30;4.20;;;;;;;7.42;68.18;99496.96;105760;1253;74511;-25
2024/02/29 06:47:21;;;;;;;16.00;6.10;;;;;;;7.83;66.81;99497.02;105766;1253;74342;-25
2024/02/29 06:49:48;;;;;;;6.80;4.30;;;;;;;7.92;66.41;99496.77;105757;1253;72672;-25
2024/02/29 06:52:16;;;;;;;10.50;5.40;;;;;;;7.99;66.01;99506.05;105803;1253;61825;-26
2024/02/29 06:54:45;;;;;;;13.00;7.30;;;;;;;7.81;66.32;99513.71;105705;1257;61750;-26
2024/02/29 06:57:12;;;;;;;9.70;5.40;;;;;;;7.82;66.43;99515.60;105665;1253;72868;-26
2024/02/29 06:59:39;;;;;;;9.10;4.60;;;;;;;7.61;67.01;99513.56;105719;1258;75881;-25
2024/02/29 07:02:06;;;;;;;13.80;5.50;;;;;;;8.15;66.23;99514.38;105545;1253;72655;-25
2024/02/29 07:04:34;;;;;;;9.50;5.10;;;;;;;8.70;64.32;99519.35;105469;1253;61650;-28
2024/02/29 07:07:03;;;;;;;13.00;7.00;;;;;;;8.81;63.57;99519.81;105746;1258;61857;-26
2024/02/29 07:09:31;;;;;;;14.60;6.90;;;;;;;8.64;63.80;99519.41;105790;1253;74680;-27
2024/02/29 07:11:58;;;;;;;8.50;5.00;;;;;;;8.35;64.76;99516.23;105722;1253;74237;-27
2024/02/29 07:14:25;;;;;;;9.90;5.40;;;;;;;8.41;64.70;99517.70;105742;1253;72988;-27
2024/02/29 07:16:52;;;;;;;10.90;6.20;;;;;;;8.18;65.39;99525.96;105657;1254;61051;-27
2024/02/29 07:19:20;;;;;;;13.70;6.00;;;;;;;8.01;66.32;99520.30;105534;1253;61112;-27
2024/02/29 07:21:48;;;;;;;13.40;7.40;;;;;;;8.64;65.01;99521.61;105571;1253;72841;-27
2024/02/29 07:24:15;;;;;;;9.20;5.90;;;;;;;8.93;63.43;99522.48;105673;1253;74398;-27
2024/02/29 07:26:42;;;;;;;10.90;6.60;;;;;;;8.80;63.52;99523.02;105784;1253;74007;-27
2024/02/29 07:29:09;;;;;;;16.40;7.00;;;;;;;8.80;63.53;99527.89;105762;1253;62226;-26
2024/02/29 07:31:40;;;;;;;19.50;6.90;;;;;;;8.65;63.91;99527.80;105793;1258;61147;-28
2024/02/29 07:34:10;;;;;;;16.20;4.60;;;;;;;8.41;64.81;99525.84;105812;1253;75349;-27
2024/02/29 07:36:37;;;;;;;10.10;4.80;;;;;;;8.18;65.86;99525.10;105661;1258;76309;-27
2024/02/29 07:39:07;;;;;;;9.40;4.50;;;;;;;8.63;64.79;99522.77;105724;1253;74191;-27
2024/02/29 07:41:34;;;;;;;20.80;7.40;;;;;;;8.88;63.89;99520.06;105687;1253;61530;-27
2024/02/29 07:44:02;;;;;;;12.80;5.90;;;;;;;8.99;63.99;99521.93;105594;1258;61691;-28
2024/02/29 07:46:31;;;;;;;10.40;6.10;;;;;;;9.11;63.60;99521.10;105764;1257;75424;-27
2024/02/29 07:48:58;;;;;;;9.90;5.00;;;;;;;8.98;63.52;99524.61;105717;1253;74414;-27
2024/02/29 07:51:26;;;;;;;13.90;6.80;;;;;;;8.72;64.42;99528.55;105640;1253;74290;-27
2024/02/29 07:53:53;;;;;;;6.90;2.80;;;;;;;8.73;64.85;99526.92;105666;1258;62703;-27
2024/02/29 07:56:20;;;;;;;9.30;4.50;;;;;;;9.34;63.53;99526.14;105601;1259;61110;-27
2024/02/29 07:58:48;;;;;;;9.00;4.10;;;;;;;10.05;60.70;99530.95;105628;1253;75770;-28
2024/02/29 08:01:16;;;;;;;13.20;5.90;;;;;;;10.08;60.97;99532.66;105737;1258;76031;-28
2024/02/29 08:03:43;;;;;;;10.10;5.10;;;;;;;9.94;60.58;99532.61;105769;1257;74492;-27
2024/02/29 08:06:12;;;;;;;9.50;4.60;;;;;;;9.82;61.02;99533.43;105803;1253;61373;-27
2024/02/29 08:08:39;;;;;;;10.00;4.70;;;;;;;9.64;61.62;99535.02;105644;1258;61794;-27
2024/02/29 08:11:07;;;;;;;14.70;7.20;;;;;;;9.73;61.56;99530.91;105714;1253;75720;-28
2024/02/29 08:13:34;;;;;;;13.50;7.80;;;;;;;9.59;61.69;99529.48;105649;1253;76226;-27
2024/02/29 08:16:02;;;;;;;10.60;5.80;;;;;;;9.53;61.94;99531.24;105771;1253;74179;-27
2024/02/29 08:18:33;;;;;;;14.80;6.80;;;;;;;9.47;62.54;99528.57;105575;1253;62803;-27
2024/02/29 08:21:18;;;;;;;4.80;2.80;;;;;;;10.24;61.08;99532.20;105504;1259;61717;-25
2024/02/29 08:23:46;;;;;;;12.00;5.70;;;;;;;10.44;60.12;99528.04;105785;1253;75455;-25
2024/02/29 08:27:50;;;;;;;14.80;6.30;;;;;;;10.06;61.19;99522.41;102644;1292;600835;-25
2024/02/29 08:30:19;;;;;;;15.20;6.80;;;;;;;10.17;60.52;99528.89;104813;1270;61755;-25
2024/02/29 08:32:48;;;;;;;12.70;6.40;;;;;;;10.19;61.02;99525.94;104870;1273;61386;-27
2024/02/29 08:35:17;;;;;;;16.80;6.50;;;;;;;10.18;61.09;99525.34;104944;1270;75003;-27
2024/02/29 08:37:45;;;;;;;13.00;7.60;;;;;;;10.18;61.29;99526.91;104757;1275;75499;-27
2024/02/29 08:40:13;;;;;;;17.50;8.80;;;;;;;10.02;61.29;99527.17;104816;1267;74898;-27
2024/02/29 08:42:41;;;;;;;10.50;6.40;;;;;;;10.09;61.43;99528.95;104904;1263;306348;-27
2024/02/29 08:45:10;;;;;;;15.10;7.10;;;;;;;10.72;60.17;99523.52;105150;1263;61533;-27
2024/02/29 08:47:37;;;;;;;14.90;6.50;;;;;;;11.04;59.22;99524.77;105182;1263;75014;-27
2024/02/29 08:50:06;;;;;;;13.40;6.10;;;;;;;10.96;59.43;99521.20;105063;1263;76449;-27
2024/02/29 08:52:34;;;;;;;15.70;7.50;;;;;;;10.79;59.18;99520.08;104925;1267;73806;-27
2024/02/29 08:55:03;;;;;;;15.50;7.30;;;;;;;10.59;59.55;99521.17;105172;1264;62571;-28
2024/02/29 08:57:31;;;;;;;17.20;7.90;;;;;;;10.16;61.07;99519.23;105220;1263;62737;-27
2024/02/29 08:59:59;;;;;;;14.90;7.70;;;;;;;10.30;61.05;99520.16;104909;1269;75234;-27
2024/02/29 09:02:27;;;;;;;20.90;7.30;;;;;;;10.30;61.02;99521.73;105068;1269;76147;-25
2024/02/29 09:04:55;;;;;;;9.70;6.20;;;;;;;10.36;60.94;99516.95;104932;1269;74472;-25
2024/02/29 09:07:23;;;;;;;14.60;7.40;;;;;;;10.18;61.23;99517.34;104905;1264;62526;-26
2024/02/29 09:09:51;;;;;;;20.50;7.90;;;;;;;9.94;62.05;99512.98;104724;1265;60997;-25
2024/02/29 09:12:19;;;;;;;11.30;5.60;;;;;;;10.65;60.90;99515.02;105063;1264;75818;-26
2024/02/29 09:14:47;;;;;;;18.10;7.60;;;;;;;11.12;59.65;99512.52;104877;1269;75641;-25
2024/02/29 09:17:15;;;;;;;19.20;7.90;;;;;;;11.17;59.60;99511.84;105092;1266;74148;-25
2024/02/29 09:19:43;;;;;;;13.50;6.40;;;;;;;11.45;58.71;99509.71;104780;1264;62836;-26
2024/02/29 09:22:11;;;;;;;19.70;6.80;;;;;;;11.61;58.80;99504.45;104939;1264;61820;-25
2024/02/29 09:24:39;;;;;;;14.30;7.50;;;;;;;11.72;58.18;99505.65;105117;1269;73854;-25
2024/02/29 09:27:07;;;;;;;14.80;7.50;;;;;;;12.05;57.32;99504.70;105077;1264;76308;-25
2024/02/29 09:29:35;;;;;;;15.50;7.60;;;;;;;12.42;56.45;99507.80;104808;1264;75297;-25
2024/02/29 09:32:04;;;;;;;15.40;7.50;;;;;;;12.88;55.60;99510.12;104614;1271;61984;-25
2024/02/29 09:34:34;;;;;;;11.00;6.90;;;;;;;13.27;54.34;99507.94;104910;1270;63923;-26
2024/02/29 09:37:06;;;;;;;14.30;6.50;;;;;;;13.47;53.08;99514.06;105054;1265;75249;-25
2024/02/29 09:39:34;;;;;;;16.20;7.30;;;;;;;13.94;52.77;99518.04;105007;1269;78431;-25
2024/02/29 09:42:03;;;;;;;11.70;7.10;;;;;;;14.29;51.89;99524.09;104795;1265;72784;-25
2024/02/29 09:44:42;;;;;;;14.50;6.50;;;;;;;14.54;50.09;99524.42;104805;1266;61845;-25
2024/02/29 09:47:12;;;;;;;11.20;7.10;;;;;;;14.39;51.15;99522.44;104949;1265;62977;-25
2024/02/29 09:49:40;;;;;;;12.10;6.20;;;;;;;14.86;50.31;99520.89;104753;1266;74817;-25
2024/02/29 09:52:12;;;;;;;12.00;6.40;;;;;;;14.96;49.28;99518.23;104884;1268;75517;-25
2024/02/29 09:54:40;;;;;;;12.80;6.00;;;;;;;15.38;49.48;99519.10;104700;1267;74496;-25
2024/02/29 09:57:09;;;;;;;15.20;6.40;;;;;;;15.63;48.15;99519.02;104781;1267;62590;-25
2024/02/29 09:59:43;;;;;;;16.20;7.70;;;;;;;15.59;48.52;99516.39;104733;1266;61853;-25
2024/02/29 10:02:17;;;;;;;13.20;6.70;;;;;;;16.21;47.43;99519.41;104669;1265;77128;-25
2024/02/29 10:04:46;;;;;;;15.20;7.40;;;;;;;16.61;46.24;99516.65;104804;1265;75214;-25
2024/02/29 10:07:14;;;;;;;16.30;6.00;;;;;;;16.78;45.79;99511.05;104878;1269;75587;-26
2024/02/29 10:09:43;;;;;;;13.40;6.50;;;;;;;16.42;45.61;99512.80;105105;1265;62517;-26
2024/02/29 10:12:17;;;;;;;13.50;6.30;;;;;;;16.39;46.17;99512.04;104813;1271;62771;-26
2024/02/29 10:14:46;;;;;;;14.60;6.60;;;;;;;16.60;45.84;99506.19;104716;1271;75786;-26
2024/02/29 10:17:14;;;;;;;21.30;7.10;;;;;;;16.76;45.77;99500.52;104816;1269;76672;-26
2024/02/29 10:19:41;;;;;;;12.80;6.60;;;;;;;16.97;44.98;99499.73;104694;1266;74073;-26
2024/02/29 10:22:10;;;;;;;14.00;7.00;;;;;;;16.88;45.05;99498.27;104767;1266;63935;-26
2024/02/29 10:24:38;;;;;;;12.30;5.60;;;;;;;16.79;44.99;99495.90;104736;1265;61838;-26
2024/02/29 10:27:06;;;;;;;16.20;6.80;;;;;;;16.56;44.53;99495.38;104773;1269;75511;-26
2024/02/29 10:29:34;;;;;;;13.30;5.90;;;;;;;16.53;44.66;99497.40;104803;1266;75485;-26
2024/02/29 10:32:01;;;;;;;10.50;5.00;;;;;;;16.40;44.83;99497.30;105079;1265;76663;-26
2024/02/29 10:34:29;;;;;;;15.10;6.00;;;;;;;16.52;45.66;99494.20;104846;1267;64096;-26
2024/02/29 10:36:57;;;;;;;14.20;6.00;;;;;;;16.87;44.93;99491.79;104700;1269;62859;-27
2024/02/29 10:39:26;;;;;;;12.80;6.40;;;;;;;16.99;44.76;99495.26;104685;1270;73941;-26
2024/02/29 10:41:55;;;;;;;13.10;6.00;;;;;;;17.02;44.61;99489.77;104774;1269;78444;-26
2024/02/29 10:44:24;;;;;;;13.70;5.90;;;;;;;16.87;44.98;99486.83;104742;1265;74434;-26
2024/02/29 10:46:52;;;;;;;14.20;6.60;;;;;;;16.75;45.04;99482.05;104793;1271;61137;-26
2024/02/29 10:49:28;;;;;;;16.60;6.70;;;;;;;16.96;45.14;99478.83;104785;1270;62786;-26
2024/02/29 10:52:26;;;;;;;15.90;6.30;;;;;;;16.37;45.24;99478.30;104841;1270;75804;-26
2024/02/29 10:55:08;;;;;;;14.80;6.60;;;;;;;16.85;44.87;99474.06;104895;1270;75771;-26
2024/02/29 10:58:22;;;;;;;13.50;6.30;;;;;;;16.48;45.50;99478.97;104852;1267;73415;-26
2024/02/29 11:00:50;;;;;;;12.10;5.60;;;;;;;16.64;45.51;99478.30;104837;1267;62874;-26
2024/02/29 11:03:19;;;;;;;12.40;6.20;;;;;;;16.95;44.92;99476.91;104691;1267;62793;-26
2024/02/29 11:05:47;;;;;;;16.70;6.40;;;;;;;17.14;44.41;99479.27;104746;1265;75095;-26
2024/02/29 11:08:15;;;;;;;12.30;6.00;;;;;;;17.24;44.29;99476.19;104725;1272;76800;-26
2024/02/29 11:10:51;;;;;;;14.40;6.30;;;;;;;17.23;44.09;99473.73;105053;1269;75188;-26
2024/02/29 11:13:19;;;;;;;11.30;5.40;;;;;;;16.88;44.92;99477.27;104698;1273;61368;-26
2024/02/29 11:15:52;;;;;;;11.10;4.90;;;;;;;16.97;44.88;99475.48;104566;1266;62654;-26
2024/02/29 11:18:24;;;;;;;15.90;6.10;;;;;;;16.84;44.50;99473.81;104760;1265;76301;-26
2024/02/29 11:21:05;;;;;;;17.60;7.10;;;;;;;16.89;44.26;99474.88;104727;1265;76802;-26
2024/02/29 11:23:37;;;;;;;13.30;5.80;;;;;;;17.19;44.05;99469.63;104533;1267;75492;-26
2024/02/29 11:26:08;;;;;;;11.50;6.20;;;;;;;17.40;43.78;99472.77;104397;1275;61164;-26
2024/02/29 11:28:41;;;;;;;12.40;6.20;;;;;;;17.42;43.49;99471.11;104479;1265;62639;-26
2024/02/29 11:31:16;;;;;;;13.30;6.00;;;;;;;17.56;43.23;99472.31;104531;1267;74360;-26
2024/02/29 11:33:46;;;;;;;15.70;6.80;;;;;;;17.12;43.61;99471.59;104684;1272;77308;-26
2024/02/29 11:36:14;;;;;;;13.20;6.30;;;;;;;16.92;44.21;99470.56;104925;1268;73377;-26
2024/02/29 11:38:44;;;;;;;9.10;5.30;;;;;;;16.90;44.22;99473.63;104993;1267;62536;-26
2024/02/29 11:41:19;;;;;;;14.20;6.40;;;;;;;16.97;44.25;99472.40;104913;1266;64332;-26
2024/02/29 11:43:48;;;;;;;13.30;6.50;;;;;;;17.31;43.29;99472.30;104621;1272;75579;-26
2024/02/29 11:46:17;;;;;;;10.30;5.60;;;;;;;17.40;43.04;99468.31;104773;1265;76161;-26
2024/02/29 11:48:48;;;;;;;11.80;5.30;;;;;;;17.49;43.99;99469.77;104801;1268;75360;-26
2024/02/29 11:51:35;;;;;;;14.60;5.80;;;;;;;17.49;43.21;99467.83;104735;1272;62711;-26
2024/02/29 11:54:05;;;;;;;17.30;5.30;;;;;;;17.37;43.12;99470.41;104994;1266;62800;-26
2024/02/29 11:56:33;;;;;;;14.70;6.30;;;;;;;17.30;42.57;99468.11;104972;1269;74817;-26
2024/02/29 11:59:02;;;;;;;16.60;5.70;;;;;;;17.26;43.24;99465.58;105127;1269;76826;-26
2024/02/29 12:01:30;;;;;;;12.30;5.60;;;;;;;17.22;43.12;99461.59;104853;1266;75443;-26
2024/02/29 12:04:00;;;;;;;14.90;6.00;;;;;;;17.49;42.69;99461.31;105202;1267;62544;-26
2024/02/29 12:06:28;;;;;;;14.10;6.00;;;;;;;17.60;42.78;99462.64;104838;1265;62767;-26
2024/02/29 12:08:56;;;;;;;14.70;5.70;;;;;;;17.61;42.49;99458.66;105192;1266;75773;-26
2024/02/29 12:11:24;;;;;;;11.70;6.70;;;;;;;17.53;43.01;99453.38;105746;1254;76802;-26
2024/02/29 12:13:51;;;;;;;15.00;7.50;;;;;;;17.30;43.32;99449.59;105739;1254;75590;-26
2024/02/29 12:16:19;;;;;;;13.70;7.30;;;;;;;17.04;43.87;99447.40;105628;1259;61366;-26
2024/02/29 12:18:48;;;;;;;12.70;5.80;;;;;;;17.14;43.99;99448.61;105578;1253;61277;-26
2024/02/29 12:21:16;;;;;;;14.80;6.70;;;;;;;17.11;43.87;99443.08;105535;1253;75824;-27
2024/02/29 12:23:43;;;;;;;16.30;7.20;;;;;;;17.10;44.14;99442.87;105519;1253;76778;-28
2024/02/29 12:26:16;;;;;;;14.10;6.10;;;;;;;16.99;44.61;99439.04;105686;1254;76632;-26
2024/02/29 12:28:47;;;;;;;16.40;6.50;;;;;;;16.99;44.76;99435.17;105592;1253;61920;-27
2024/02/29 12:31:15;;;;;;;9.30;5.30;;;;;;;17.03;44.52;99435.27;105737;1253;62793;-27
2024/02/29 12:33:44;;;;;;;15.20;7.10;;;;;;;17.05;44.47;99431.38;105662;1253;76096;-27
2024/02/29 12:36:18;;;;;;;16.70;6.20;;;;;;;17.17;44.23;99431.59;105579;1253;76173;-26
2024/02/29 12:38:48;;;;;;;13.10;5.90;;;;;;;17.17;44.37;99428.44;105601;1254;74936;-26
2024/02/29 12:41:16;;;;;;;15.30;5.70;;;;;;;17.32;43.99;99422.86;105779;1253;61861;-26
2024/02/29 12:43:48;;;;;;;14.70;5.90;;;;;;;17.02;44.74;99420.80;105732;1257;62820;-25
2024/02/29 12:46:16;;;;;;;17.30;6.80;;;;;;;16.68;45.55;99421.20;105597;1261;74799;-26
2024/02/29 12:48:46;;;;;;;12.90;5.80;;;;;;;16.69;45.92;99418.92;105684;1253;77114;-26
2024/02/29 12:51:14;;;;;;;17.10;6.30;;;;;;;17.03;44.79;99417.77;105758;1253;74068;-26
2024/02/29 12:53:42;;;;;;;14.20;6.10;;;;;;;17.20;44.77;99416.07;105685;1260;61673;-26
2024/02/29 12:56:10;;;;;;;16.40;6.40;;;;;;;17.26;44.78;99416.26;105368;1253;61508;-26